sensor_id;sensor_type;location;lat;lon;timestamp;temperature;humidity
2050;DHT22;8478;49.208;8.806;2022-10-29T00:00:38;15.80;99.90
2050;DHT22;8478;49.208;8.806;2022-10-29T00:03:04;15.90;99.90
2050;DHT22;8478;49.208;8.806;2022-10-29T00:05:30;15.90;99.90
2050;DHT22;8478;49.208;8.806;2022-10-29T00:07:56;15.80;99.90
2050;DHT22;8478;49.208;8.806;2022-10-29T00:10:22;15.80;99.90
2050;DHT22;8478;49.208;8.806;2022-10-29T00:12:47;15.80;99.90
2050;DHT22;8478;49.208;8.806;2022-10-29T00:15:13;15.90;99.90
2050;DHT22;8478;49.208;8.806;2022-10-29T00:17:38;15.80;99.90
2050;DHT22;8478;49.208;8.806;2022-10-29T00:20:05;15.80;99.90
2050;DHT22;8478;49.208;8.806;2022-10-29T00:22:31;15.80;99.90
2050;DHT22;8478;49.208;8.806;2022-10-29T00:24:56;15.80;99.90
2050;DHT22;8478;49.208;8.806;2022-10-29T00:27:22;15.80;99.90
2050;DHT22;8478;49.208;8.806;2022-10-29T00:29:48;15.80;99.90
2050;DHT22;8478;49.208;8.806;2022-10-29T00:32:13;15.80;99.90
2050;DHT22;8478;49.208;8.806;2022-10-29T00:34:39;15.80;99.90
2050;DHT22;8478;49.208;8.806;2022-10-29T00:37:05;15.80;99.90
2050;DHT22;8478;49.208;8.806;2022-10-29T00:39:30;15.80;99.90
2050;DHT22;8478;49.208;8.806;2022-10-29T00:41:58;15.80;99.90
2050;DHT22;8478;49.208;8.806;2022-10-29T00:44:30;15.80;99.90
2050;DHT22;8478;49.208;8.806;2022-10-29T00:47:28;15.80;99.90
2050;DHT22;8478;49.208;8.806;2022-10-29T00:52:25;15.80;99.90
2050;DHT22;8478;49.208;8.806;2022-10-29T00:54:53;15.80;99.90
2050;DHT22;8478;49.208;8.806;2022-10-29T00:57:27;15.80;99.90
2050;DHT22;8478;49.208;8.806;2022-10-29T00:59:54;15.80;99.90
2050;DHT22;8478;49.208;8.806;2022-10-29T01:02:21;15.80;99.90
2050;DHT22;8478;49.208;8.806;2022-10-29T01:04:47;15.80;99.90
2050;DHT22;8478;49.208;8.806;2022-10-29T01:07:13;15.80;99.90
2050;DHT22;8478;49.208;8.806;2022-10-29T01:09:39;15.80;99.90
2050;DHT22;8478;49.208;8.806;2022-10-29T01:31:34;15.80;99.90
2050;DHT22;8478;49.208;8.806;2022-10-29T01:34:12;15.80;99.90
2050;DHT22;8478;49.208;8.806;2022-10-29T01:36:47;15.80;99.90
2050;DHT22;8478;49.208;8.806;2022-10-29T01:41:58;15.80;99.90
2050;DHT22;8478;49.208;8.806;2022-10-29T01:47:08;15.80;99.90
2050;DHT22;8478;49.208;8.806;2022-10-29T01:49:39;15.80;99.90
2050;DHT22;8478;49.208;8.806;2022-10-29T01:52:09;15.80;99.90
2050;DHT22;8478;49.208;8.806;2022-10-29T01:54:44;15.80;99.90
2050;DHT22;8478;49.208;8.806;2022-10-29T01:57:33;15.80;99.90
2050;DHT22;8478;49.208;8.806;2022-10-29T02:02:58;15.80;99.90
2050;DHT22;8478;49.208;8.806;2022-10-29T02:08:19;15.80;99.90
2050;DHT22;8478;49.208;8.806;2022-10-29T02:13:42;15.80;99.90
2050;DHT22;8478;49.208;8.806;2022-10-29T02:16:10;15.80;99.90
2050;DHT22;8478;49.208;8.806;2022-10-29T02:18:45;15.70;99.90
2050;DHT22;8478;49.208;8.806;2022-10-29T02:21:18;15.80;99.90
2050;DHT22;8478;49.208;8.806;2022-10-29T02:23:45;15.80;99.90
2050;DHT22;8478;49.208;8.806;2022-10-29T02:26:11;15.80;99.90
2050;DHT22;8478;49.208;8.806;2022-10-29T02:28:37;15.80;99.90
2050;DHT22;8478;49.208;8.806;2022-10-29T02:31:03;15.70;99.90
2050;DHT22;8478;49.208;8.806;2022-10-29T02:33:29;15.70;99.90
2050;DHT22;8478;49.208;8.806;2022-10-29T02:35:55;15.70;99.90
2050;DHT22;8478;49.208;8.806;2022-10-29T02:38:20;15.70;99.90
2050;DHT22;8478;49.208;8.806;2022-10-29T02:40:46;15.70;99.90
2050;DHT22;8478;49.208;8.806;2022-10-29T02:43:11;15.70;99.90
2050;DHT22;8478;49.208;8.806;2022-10-29T02:45:37;15.70;99.90
2050;DHT22;8478;49.208;8.806;2022-10-29T02:48:03;15.70;99.90
2050;DHT22;8478;49.208;8.806;2022-10-29T02:50:29;15.70;99.90
2050;DHT22;8478;49.208;8.806;2022-10-29T02:52:54;15.70;99.90
2050;DHT22;8478;49.208;8.806;2022-10-29T02:55:20;15.70;99.90
2050;DHT22;8478;49.208;8.806;2022-10-29T02:57:45;15.70;99.90
2050;DHT22;8478;49.208;8.806;2022-10-29T03:00:12;15.70;99.90
2050;DHT22;8478;49.208;8.806;2022-10-29T03:02:39;15.70;99.90
2050;DHT22;8478;49.208;8.806;2022-10-29T03:05:05;15.70;99.90
2050;DHT22;8478;49.208;8.806;2022-10-29T03:07:34;15.70;99.90
2050;DHT22;8478;49.208;8.806;2022-10-29T03:10:04;15.70;99.90
2050;DHT22;8478;49.208;8.806;2022-10-29T03:12:30;15.70;99.90
2050;DHT22;8478;49.208;8.806;2022-10-29T03:14:56;15.70;99.90
2050;DHT22;8478;49.208;8.806;2022-10-29T03:17:22;15.70;99.90
2050;DHT22;8478;49.208;8.806;2022-10-29T03:19:48;15.70;99.90
2050;DHT22;8478;49.208;8.806;2022-10-29T03:22:13;15.70;99.90
2050;DHT22;8478;49.208;8.806;2022-10-29T03:24:39;15.70;99.90
2050;DHT22;8478;49.208;8.806;2022-10-29T03:27:05;15.70;99.90
2050;DHT22;8478;49.208;8.806;2022-10-29T03:29:30;15.70;99.90
2050;DHT22;8478;49.208;8.806;2022-10-29T03:31:56;15.70;99.90
2050;DHT22;8478;49.208;8.806;2022-10-29T03:34:21;15.70;99.90
2050;DHT22;8478;49.208;8.806;2022-10-29T03:36:47;15.70;99.90
2050;DHT22;8478;49.208;8.806;2022-10-29T03:39:13;15.70;99.90
2050;DHT22;8478;49.208;8.806;2022-10-29T03:41:39;15.70;99.90
2050;DHT22;8478;49.208;8.806;2022-10-29T03:44:04;15.70;99.90
2050;DHT22;8478;49.208;8.806;2022-10-29T03:46:30;15.70;99.90
2050;DHT22;8478;49.208;8.806;2022-10-29T03:48:56;15.70;99.90
2050;DHT22;8478;49.208;8.806;2022-10-29T03:51:22;15.70;99.90
2050;DHT22;8478;49.208;8.806;2022-10-29T03:53:48;15.70;99.90
2050;DHT22;8478;49.208;8.806;2022-10-29T03:56:13;15.70;99.90
2050;DHT22;8478;49.208;8.806;2022-10-29T03:58:39;15.70;99.90
2050;DHT22;8478;49.208;8.806;2022-10-29T04:01:06;15.70;99.90
2050;DHT22;8478;49.208;8.806;2022-10-29T04:03:34;15.70;99.90
2050;DHT22;8478;49.208;8.806;2022-10-29T04:06:01;15.70;99.90
2050;DHT22;8478;49.208;8.806;2022-10-29T04:08:28;15.70;99.90
2050;DHT22;8478;49.208;8.806;2022-10-29T04:10:54;15.70;99.90
2050;DHT22;8478;49.208;8.806;2022-10-29T04:13:20;15.70;99.90
2050;DHT22;8478;49.208;8.806;2022-10-29T04:15:45;15.70;99.90
2050;DHT22;8478;49.208;8.806;2022-10-29T04:18:12;15.70;99.90
2050;DHT22;8478;49.208;8.806;2022-10-29T04:20:38;15.70;99.90
2050;DHT22;8478;49.208;8.806;2022-10-29T04:23:05;15.70;99.90
2050;DHT22;8478;49.208;8.806;2022-10-29T04:25:30;15.70;99.90
2050;DHT22;8478;49.208;8.806;2022-10-29T04:27:57;15.70;99.90
2050;DHT22;8478;49.208;8.806;2022-10-29T04:30:23;15.60;99.90
2050;DHT22;8478;49.208;8.806;2022-10-29T04:32:49;15.60;99.90
2050;DHT22;8478;49.208;8.806;2022-10-29T04:35:15;15.60;99.90
2050;DHT22;8478;49.208;8.806;2022-10-29T04:37:41;15.60;99.90
2050;DHT22;8478;49.208;8.806;2022-10-29T04:40:07;15.60;99.90
2050;DHT22;8478;49.208;8.806;2022-10-29T04:42:37;15.60;99.90
2050;DHT22;8478;49.208;8.806;2022-10-29T04:45:04;15.60;99.90
2050;DHT22;8478;49.208;8.806;2022-10-29T04:47:30;15.60;99.90
2050;DHT22;8478;49.208;8.806;2022-10-29T04:49:55;15.60;99.90
2050;DHT22;8478;49.208;8.806;2022-10-29T04:52:21;15.60;99.90
2050;DHT22;8478;49.208;8.806;2022-10-29T04:54:47;15.60;99.90
2050;DHT22;8478;49.208;8.806;2022-10-29T04:57:12;15.60;99.90
2050;DHT22;8478;49.208;8.806;2022-10-29T04:59:38;15.60;99.90
2050;DHT22;8478;49.208;8.806;2022-10-29T05:02:03;15.60;99.90
2050;DHT22;8478;49.208;8.806;2022-10-29T05:04:29;15.60;99.90
2050;DHT22;8478;49.208;8.806;2022-10-29T05:06:55;15.60;99.90
2050;DHT22;8478;49.208;8.806;2022-10-29T05:09:20;15.60;99.90
2050;DHT22;8478;49.208;8.806;2022-10-29T05:11:46;15.60;99.90
2050;DHT22;8478;49.208;8.806;2022-10-29T05:14:12;15.60;99.90
2050;DHT22;8478;49.208;8.806;2022-10-29T05:16:37;15.60;99.90
2050;DHT22;8478;49.208;8.806;2022-10-29T05:19:03;15.60;99.90
2050;DHT22;8478;49.208;8.806;2022-10-29T05:21:30;15.60;99.90
2050;DHT22;8478;49.208;8.806;2022-10-29T05:23:55;15.60;99.90
2050;DHT22;8478;49.208;8.806;2022-10-29T05:26:21;15.60;99.90
2050;DHT22;8478;49.208;8.806;2022-10-29T05:28:50;15.60;99.90
2050;DHT22;8478;49.208;8.806;2022-10-29T05:31:17;15.60;99.90
2050;DHT22;8478;49.208;8.806;2022-10-29T05:33:43;15.60;99.90
2050;DHT22;8478;49.208;8.806;2022-10-29T05:36:09;15.60;99.90
2050;DHT22;8478;49.208;8.806;2022-10-29T05:38:35;15.60;99.90
2050;DHT22;8478;49.208;8.806;2022-10-29T05:41:00;15.60;99.90
2050;DHT22;8478;49.208;8.806;2022-10-29T05:43:26;15.60;99.90
2050;DHT22;8478;49.208;8.806;2022-10-29T05:45:52;15.60;99.90
2050;DHT22;8478;49.208;8.806;2022-10-29T05:48:18;15.60;99.90
2050;DHT22;8478;49.208;8.806;2022-10-29T05:50:44;15.60;99.90
2050;DHT22;8478;49.208;8.806;2022-10-29T05:53:11;15.60;99.90
2050;DHT22;8478;49.208;8.806;2022-10-29T05:55:38;15.60;99.90
2050;DHT22;8478;49.208;8.806;2022-10-29T05:58:10;15.60;99.90
2050;DHT22;8478;49.208;8.806;2022-10-29T06:00:38;15.60;99.90
2050;DHT22;8478;49.208;8.806;2022-10-29T06:03:12;15.60;99.90
2050;DHT22;8478;49.208;8.806;2022-10-29T06:05:38;15.60;99.90
2050;DHT22;8478;49.208;8.806;2022-10-29T06:08:04;15.60;99.90
2050;DHT22;8478;49.208;8.806;2022-10-29T06:10:29;15.60;99.90
2050;DHT22;8478;49.208;8.806;2022-10-29T06:12:55;15.60;99.90
2050;DHT22;8478;49.208;8.806;2022-10-29T06:15:21;15.60;99.90
2050;DHT22;8478;49.208;8.806;2022-10-29T06:17:47;15.60;99.90
2050;DHT22;8478;49.208;8.806;2022-10-29T06:20:16;15.60;99.90
2050;DHT22;8478;49.208;8.806;2022-10-29T06:22:42;15.60;99.90
2050;DHT22;8478;49.208;8.806;2022-10-29T06:25:08;15.60;99.90
2050;DHT22;8478;49.208;8.806;2022-10-29T06:27:34;15.60;99.90
2050;DHT22;8478;49.208;8.806;2022-10-29T06:30:00;15.60;99.90
2050;DHT22;8478;49.208;8.806;2022-10-29T06:32:26;15.60;99.90
2050;DHT22;8478;49.208;8.806;2022-10-29T06:34:51;15.60;99.90
2050;DHT22;8478;49.208;8.806;2022-10-29T06:37:17;15.60;99.90
2050;DHT22;8478;49.208;8.806;2022-10-29T06:39:43;15.60;99.90
2050;DHT22;8478;49.208;8.806;2022-10-29T06:42:08;15.60;99.90
2050;DHT22;8478;49.208;8.806;2022-10-29T06:44:34;15.60;99.90
2050;DHT22;8478;49.208;8.806;2022-10-29T06:46:59;15.60;99.90
2050;DHT22;8478;49.208;8.806;2022-10-29T06:49:25;15.60;99.90
2050;DHT22;8478;49.208;8.806;2022-10-29T06:51:51;15.60;99.90
2050;DHT22;8478;49.208;8.806;2022-10-29T06:54:17;15.60;99.90
2050;DHT22;8478;49.208;8.806;2022-10-29T06:56:42;15.60;99.90
2050;DHT22;8478;49.208;8.806;2022-10-29T06:59:08;15.60;99.90
2050;DHT22;8478;49.208;8.806;2022-10-29T07:01:34;15.60;99.90
2050;DHT22;8478;49.208;8.806;2022-10-29T07:03:59;15.60;99.90
2050;DHT22;8478;49.208;8.806;2022-10-29T07:06:25;15.60;99.90
2050;DHT22;8478;49.208;8.806;2022-10-29T07:08:51;15.60;99.90
2050;DHT22;8478;49.208;8.806;2022-10-29T07:11:16;15.60;99.90
2050;DHT22;8478;49.208;8.806;2022-10-29T07:13:42;15.60;99.90
2050;DHT22;8478;49.208;8.806;2022-10-29T07:16:08;15.60;99.90
2050;DHT22;8478;49.208;8.806;2022-10-29T07:18:34;15.60;99.90
2050;DHT22;8478;49.208;8.806;2022-10-29T07:21:01;15.60;99.90
2050;DHT22;8478;49.208;8.806;2022-10-29T07:23:27;15.60;99.90
2050;DHT22;8478;49.208;8.806;2022-10-29T07:25:53;15.60;99.90
2050;DHT22;8478;49.208;8.806;2022-10-29T07:28:20;15.60;99.90
2050;DHT22;8478;49.208;8.806;2022-10-29T07:30:48;15.60;99.90
2050;DHT22;8478;49.208;8.806;2022-10-29T07:33:15;15.60;99.90
2050;DHT22;8478;49.208;8.806;2022-10-29T07:35:41;15.60;99.90
2050;DHT22;8478;49.208;8.806;2022-10-29T07:38:08;15.60;99.90
2050;DHT22;8478;49.208;8.806;2022-10-29T07:40:34;15.60;99.90
2050;DHT22;8478;49.208;8.806;2022-10-29T07:43:00;15.60;99.90
2050;DHT22;8478;49.208;8.806;2022-10-29T07:45:26;15.60;99.90
2050;DHT22;8478;49.208;8.806;2022-10-29T07:48:03;15.60;99.90
2050;DHT22;8478;49.208;8.806;2022-10-29T07:50:30;15.60;99.90
2050;DHT22;8478;49.208;8.806;2022-10-29T07:52:58;15.60;99.90
2050;DHT22;8478;49.208;8.806;2022-10-29T07:55:24;15.60;99.90
2050;DHT22;8478;49.208;8.806;2022-10-29T07:57:58;15.60;99.90
2050;DHT22;8478;49.208;8.806;2022-10-29T08:00:26;15.60;99.90
2050;DHT22;8478;49.208;8.806;2022-10-29T08:02:55;15.60;99.90
2050;DHT22;8478;49.208;8.806;2022-10-29T08:05:22;15.60;99.90
2050;DHT22;8478;49.208;8.806;2022-10-29T08:07:48;15.60;99.90
2050;DHT22;8478;49.208;8.806;2022-10-29T08:10:14;15.60;99.90
2050;DHT22;8478;49.208;8.806;2022-10-29T08:12:46;15.60;99.90
2050;DHT22;8478;49.208;8.806;2022-10-29T08:15:12;15.60;99.90
2050;DHT22;8478;49.208;8.806;2022-10-29T08:17:38;15.60;99.90
2050;DHT22;8478;49.208;8.806;2022-10-29T08:20:03;15.60;99.90
2050;DHT22;8478;49.208;8.806;2022-10-29T08:22:29;15.60;99.90
2050;DHT22;8478;49.208;8.806;2022-10-29T08:24:55;15.60;99.90
2050;DHT22;8478;49.208;8.806;2022-10-29T08:27:21;15.60;99.90
2050;DHT22;8478;49.208;8.806;2022-10-29T08:29:46;15.60;99.90
2050;DHT22;8478;49.208;8.806;2022-10-29T08:32:12;15.60;99.90
2050;DHT22;8478;49.208;8.806;2022-10-29T08:34:37;15.60;99.90
2050;DHT22;8478;49.208;8.806;2022-10-29T08:37:03;15.60;99.90
2050;DHT22;8478;49.208;8.806;2022-10-29T08:39:29;15.60;99.90
2050;DHT22;8478;49.208;8.806;2022-10-29T08:45:37;15.60;99.90
2050;DHT22;8478;49.208;8.806;2022-10-29T08:51:07;15.60;99.90
2050;DHT22;8478;49.208;8.806;2022-10-29T08:53:38;15.60;99.90
2050;DHT22;8478;49.208;8.806;2022-10-29T08:56:10;15.60;99.90
2050;DHT22;8478;49.208;8.806;2022-10-29T08:58:49;15.60;99.90
2050;DHT22;8478;49.208;8.806;2022-10-29T09:01:21;15.60;99.90
2050;DHT22;8478;49.208;8.806;2022-10-29T09:03:47;15.60;99.90
2050;DHT22;8478;49.208;8.806;2022-10-29T09:06:19;15.60;99.90
2050;DHT22;8478;49.208;8.806;2022-10-29T09:09:20;15.60;99.90
2050;DHT22;8478;49.208;8.806;2022-10-29T09:22:45;15.60;99.90
2050;DHT22;8478;49.208;8.806;2022-10-29T09:25:17;15.60;99.90
2050;DHT22;8478;49.208;8.806;2022-10-29T09:30:42;15.60;99.90
2050;DHT22;8478;49.208;8.806;2022-10-29T09:33:15;15.60;99.90
2050;DHT22;8478;49.208;8.806;2022-10-29T09:35:53;15.60;99.90
2050;DHT22;8478;49.208;8.806;2022-10-29T09:38:31;15.60;99.90
2050;DHT22;8478;49.208;8.806;2022-10-29T09:40:59;15.70;99.90
2050;DHT22;8478;49.208;8.806;2022-10-29T09:43:35;15.70;99.90
2050;DHT22;8478;49.208;8.806;2022-10-29T09:49:08;15.70;99.90
2050;DHT22;8478;49.208;8.806;2022-10-29T09:54:10;15.70;99.90
2050;DHT22;8478;49.208;8.806;2022-10-29T09:56:41;15.70;99.90
2050;DHT22;8478;49.208;8.806;2022-10-29T10:01:45;15.70;99.90
2050;DHT22;8478;49.208;8.806;2022-10-29T10:04:21;15.70;99.90
2050;DHT22;8478;49.208;8.806;2022-10-29T10:09:49;15.70;99.90
2050;DHT22;8478;49.208;8.806;2022-10-29T10:12:20;15.70;99.90
2050;DHT22;8478;49.208;8.806;2022-10-29T10:14:46;15.70;99.90
2050;DHT22;8478;49.208;8.806;2022-10-29T10:17:12;15.70;99.90
2050;DHT22;8478;49.208;8.806;2022-10-29T10:19:44;15.70;99.90
2050;DHT22;8478;49.208;8.806;2022-10-29T10:22:21;15.70;99.90
2050;DHT22;8478;49.208;8.806;2022-10-29T10:24:48;15.70;99.90
2050;DHT22;8478;49.208;8.806;2022-10-29T10:29:44;15.70;99.90
2050;DHT22;8478;49.208;8.806;2022-10-29T10:32:29;15.70;99.90
2050;DHT22;8478;49.208;8.806;2022-10-29T10:34:55;15.70;99.90
2050;DHT22;8478;49.208;8.806;2022-10-29T10:37:21;15.70;99.90
2050;DHT22;8478;49.208;8.806;2022-10-29T10:39:51;15.70;99.90
2050;DHT22;8478;49.208;8.806;2022-10-29T10:42:27;15.70;99.90
2050;DHT22;8478;49.208;8.806;2022-10-29T10:45:16;15.70;99.90
2050;DHT22;8478;49.208;8.806;2022-10-29T10:47:46;15.70;99.90
2050;DHT22;8478;49.208;8.806;2022-10-29T10:50:29;15.70;99.90
2050;DHT22;8478;49.208;8.806;2022-10-29T10:53:02;15.70;99.90
2050;DHT22;8478;49.208;8.806;2022-10-29T10:55:33;15.70;99.90
2050;DHT22;8478;49.208;8.806;2022-10-29T10:58:12;15.70;99.90
2050;DHT22;8478;49.208;8.806;2022-10-29T11:01:07;15.70;99.90
2050;DHT22;8478;49.208;8.806;2022-10-29T11:03:49;15.70;99.90
2050;DHT22;8478;49.208;8.806;2022-10-29T11:06:22;15.70;99.90
2050;DHT22;8478;49.208;8.806;2022-10-29T11:11:44;15.70;99.90
2050;DHT22;8478;49.208;8.806;2022-10-29T11:14:17;15.70;99.90
2050;DHT22;8478;49.208;8.806;2022-10-29T11:17:06;15.70;99.90
2050;DHT22;8478;49.208;8.806;2022-10-29T11:19:44;15.70;99.90
2050;DHT22;8478;49.208;8.806;2022-10-29T11:22:17;15.80;99.90
2050;DHT22;8478;49.208;8.806;2022-10-29T11:24:50;15.80;99.90
2050;DHT22;8478;49.208;8.806;2022-10-29T11:27:29;15.80;99.90
2050;DHT22;8478;49.208;8.806;2022-10-29T11:30:03;15.80;99.90
2050;DHT22;8478;49.208;8.806;2022-10-29T11:32:58;15.80;99.90
2050;DHT22;8478;49.208;8.806;2022-10-29T11:35:48;15.80;99.90
2050;DHT22;8478;49.208;8.806;2022-10-29T11:40:59;15.80;99.90
2050;DHT22;8478;49.208;8.806;2022-10-29T11:43:29;15.80;99.90
2050;DHT22;8478;49.208;8.806;2022-10-29T11:51:55;15.80;99.90
2050;DHT22;8478;49.208;8.806;2022-10-29T11:57:54;15.80;99.90
2050;DHT22;8478;49.208;8.806;2022-10-29T12:00:22;15.80;99.90
2050;DHT22;8478;49.208;8.806;2022-10-29T12:03:22;15.80;99.90
2050;DHT22;8478;49.208;8.806;2022-10-29T12:24:30;15.90;99.90
2050;DHT22;8478;49.208;8.806;2022-10-29T12:27:18;15.90;99.90
2050;DHT22;8478;49.208;8.806;2022-10-29T12:30:02;15.90;99.90
2050;DHT22;8478;49.208;8.806;2022-10-29T12:38:39;15.90;99.90
2050;DHT22;8478;49.208;8.806;2022-10-29T12:41:45;15.90;99.90
2050;DHT22;8478;49.208;8.806;2022-10-29T12:44:29;15.90;99.90
2050;DHT22;8478;49.208;8.806;2022-10-29T12:47:18;15.90;99.90
2050;DHT22;8478;49.208;8.806;2022-10-29T12:52:27;15.90;99.90
2050;DHT22;8478;49.208;8.806;2022-10-29T12:54:56;15.90;99.90
2050;DHT22;8478;49.208;8.806;2022-10-29T12:57:32;15.90;99.90
2050;DHT22;8478;49.208;8.806;2022-10-29T13:02:47;15.90;99.90
2050;DHT22;8478;49.208;8.806;2022-10-29T13:05:17;15.90;99.90
2050;DHT22;8478;49.208;8.806;2022-10-29T13:18:41;15.90;99.90
2050;DHT22;8478;49.208;8.806;2022-10-29T13:21:09;15.90;99.90
2050;DHT22;8478;49.208;8.806;2022-10-29T13:23:35;15.90;99.90
2050;DHT22;8478;49.208;8.806;2022-10-29T13:26:06;15.90;99.90
2050;DHT22;8478;49.208;8.806;2022-10-29T13:41:25;16.00;99.90
2050;DHT22;8478;49.208;8.806;2022-10-29T13:44:12;16.00;99.90
2050;DHT22;8478;49.208;8.806;2022-10-29T13:49:18;16.00;99.90
2050;DHT22;8478;49.208;8.806;2022-10-29T13:52:03;16.00;99.90
2050;DHT22;8478;49.208;8.806;2022-10-29T13:57:20;16.00;99.90
2050;DHT22;8478;49.208;8.806;2022-10-29T14:00:15;16.00;99.90
2050;DHT22;8478;49.208;8.806;2022-10-29T14:08:10;16.00;99.90
2050;DHT22;8478;49.208;8.806;2022-10-29T14:18:31;16.10;99.90
2050;DHT22;8478;49.208;8.806;2022-10-29T14:20:59;16.10;99.90
2050;DHT22;8478;49.208;8.806;2022-10-29T14:23:26;16.10;99.90
2050;DHT22;8478;49.208;8.806;2022-10-29T14:25:54;16.10;99.90
2050;DHT22;8478;49.208;8.806;2022-10-29T14:31:01;16.10;99.90
2050;DHT22;8478;49.208;8.806;2022-10-29T14:33:30;16.10;99.90
2050;DHT22;8478;49.208;8.806;2022-10-29T14:38:42;16.10;99.90
2050;DHT22;8478;49.208;8.806;2022-10-29T14:41:09;16.10;99.90
2050;DHT22;8478;49.208;8.806;2022-10-29T14:43:35;16.10;99.90
2050;DHT22;8478;49.208;8.806;2022-10-29T14:46:16;16.10;99.90
2050;DHT22;8478;49.208;8.806;2022-10-29T14:48:55;16.10;99.90
2050;DHT22;8478;49.208;8.806;2022-10-29T14:51:23;16.10;99.90
2050;DHT22;8478;49.208;8.806;2022-10-29T14:53:59;16.10;99.90
2050;DHT22;8478;49.208;8.806;2022-10-29T14:56:32;16.10;99.90
2050;DHT22;8478;49.208;8.806;2022-10-29T14:58:59;16.10;99.90
2050;DHT22;8478;49.208;8.806;2022-10-29T15:01:26;16.10;99.90
2050;DHT22;8478;49.208;8.806;2022-10-29T15:03:58;16.10;99.90
2050;DHT22;8478;49.208;8.806;2022-10-29T15:06:27;16.10;99.90
2050;DHT22;8478;49.208;8.806;2022-10-29T15:08:56;16.10;99.90
2050;DHT22;8478;49.208;8.806;2022-10-29T15:11:58;16.10;99.90
2050;DHT22;8478;49.208;8.806;2022-10-29T15:14:34;16.10;99.90
2050;DHT22;8478;49.208;8.806;2022-10-29T15:17:12;16.10;99.90
2050;DHT22;8478;49.208;8.806;2022-10-29T15:19:41;16.10;99.90
2050;DHT22;8478;49.208;8.806;2022-10-29T15:22:09;16.10;99.90
2050;DHT22;8478;49.208;8.806;2022-10-29T15:24:35;16.10;99.90
2050;DHT22;8478;49.208;8.806;2022-10-29T15:27:01;16.10;99.90
2050;DHT22;8478;49.208;8.806;2022-10-29T15:29:32;16.10;99.90
2050;DHT22;8478;49.208;8.806;2022-10-29T15:32:00;16.10;99.90
2050;DHT22;8478;49.208;8.806;2022-10-29T15:36:56;16.20;99.90
2050;DHT22;8478;49.208;8.806;2022-10-29T15:39:24;16.20;99.90
2050;DHT22;8478;49.208;8.806;2022-10-29T15:41:53;16.20;99.90
2050;DHT22;8478;49.208;8.806;2022-10-29T15:44:38;16.20;99.90
2050;DHT22;8478;49.208;8.806;2022-10-29T15:47:26;16.20;99.90
2050;DHT22;8478;49.208;8.806;2022-10-29T15:49:52;16.20;99.90
2050;DHT22;8478;49.208;8.806;2022-10-29T15:52:18;16.20;99.90
2050;DHT22;8478;49.208;8.806;2022-10-29T15:54:45;16.20;99.90
2050;DHT22;8478;49.208;8.806;2022-10-29T15:57:13;16.20;99.90
2050;DHT22;8478;49.208;8.806;2022-10-29T15:59:39;16.20;99.90
2050;DHT22;8478;49.208;8.806;2022-10-29T16:02:15;16.20;99.90
2050;DHT22;8478;49.208;8.806;2022-10-29T16:04:44;16.20;99.90
2050;DHT22;8478;49.208;8.806;2022-10-29T16:07:13;16.20;99.90
2050;DHT22;8478;49.208;8.806;2022-10-29T16:09:49;16.20;99.90
2050;DHT22;8478;49.208;8.806;2022-10-29T16:12:15;16.20;99.90
2050;DHT22;8478;49.208;8.806;2022-10-29T16:14:41;16.20;99.90
2050;DHT22;8478;49.208;8.806;2022-10-29T16:17:17;16.20;99.90
2050;DHT22;8478;49.208;8.806;2022-10-29T16:19:43;16.20;99.90
2050;DHT22;8478;49.208;8.806;2022-10-29T16:22:25;16.20;99.90
2050;DHT22;8478;49.208;8.806;2022-10-29T16:24:52;16.20;99.90
2050;DHT22;8478;49.208;8.806;2022-10-29T16:27:18;16.20;99.90
2050;DHT22;8478;49.208;8.806;2022-10-29T16:29:44;16.20;99.90
2050;DHT22;8478;49.208;8.806;2022-10-29T16:32:15;16.20;99.90
2050;DHT22;8478;49.208;8.806;2022-10-29T16:34:42;16.20;99.90
2050;DHT22;8478;49.208;8.806;2022-10-29T16:37:12;16.20;99.90
2050;DHT22;8478;49.208;8.806;2022-10-29T16:39:38;16.20;99.90
2050;DHT22;8478;49.208;8.806;2022-10-29T16:42:04;16.20;99.90
2050;DHT22;8478;49.208;8.806;2022-10-29T16:44:30;16.20;99.90
2050;DHT22;8478;49.208;8.806;2022-10-29T16:46:55;16.20;99.90
2050;DHT22;8478;49.208;8.806;2022-10-29T16:49:21;16.20;99.90
2050;DHT22;8478;49.208;8.806;2022-10-29T16:51:47;16.20;99.90
2050;DHT22;8478;49.208;8.806;2022-10-29T16:54:13;16.20;99.90
2050;DHT22;8478;49.208;8.806;2022-10-29T16:56:39;16.20;99.90
2050;DHT22;8478;49.208;8.806;2022-10-29T16:59:04;16.20;99.90
2050;DHT22;8478;49.208;8.806;2022-10-29T17:01:30;16.20;99.90
2050;DHT22;8478;49.208;8.806;2022-10-29T17:03:56;16.20;99.90
2050;DHT22;8478;49.208;8.806;2022-10-29T17:06:21;16.20;99.90
2050;DHT22;8478;49.208;8.806;2022-10-29T17:08:47;16.20;99.90
2050;DHT22;8478;49.208;8.806;2022-10-29T17:11:13;16.20;99.90
2050;DHT22;8478;49.208;8.806;2022-10-29T17:13:38;16.20;99.90
2050;DHT22;8478;49.208;8.806;2022-10-29T17:16:10;16.20;99.90
2050;DHT22;8478;49.208;8.806;2022-10-29T17:18:39;16.20;99.90
2050;DHT22;8478;49.208;8.806;2022-10-29T17:21:05;16.20;99.90
2050;DHT22;8478;49.208;8.806;2022-10-29T17:23:31;16.20;99.90
2050;DHT22;8478;49.208;8.806;2022-10-29T17:25:58;16.20;99.90
2050;DHT22;8478;49.208;8.806;2022-10-29T17:28:25;16.20;99.90
2050;DHT22;8478;49.208;8.806;2022-10-29T17:30:51;16.20;99.90
2050;DHT22;8478;49.208;8.806;2022-10-29T17:33:17;16.20;99.90
2050;DHT22;8478;49.208;8.806;2022-10-29T17:35:43;16.20;99.90
2050;DHT22;8478;49.208;8.806;2022-10-29T17:38:10;16.20;99.90
2050;DHT22;8478;49.208;8.806;2022-10-29T17:40:35;16.30;99.90
2050;DHT22;8478;49.208;8.806;2022-10-29T17:43:01;16.30;99.90
2050;DHT22;8478;49.208;8.806;2022-10-29T17:45:27;16.20;99.90
2050;DHT22;8478;49.208;8.806;2022-10-29T17:47:54;16.30;99.90
2050;DHT22;8478;49.208;8.806;2022-10-29T17:50:20;16.30;99.90
2050;DHT22;8478;49.208;8.806;2022-10-29T17:52:45;16.30;99.90
2050;DHT22;8478;49.208;8.806;2022-10-29T17:55:11;16.30;99.90
2050;DHT22;8478;49.208;8.806;2022-10-29T17:57:37;16.30;99.90
2050;DHT22;8478;49.208;8.806;2022-10-29T18:00:03;16.30;99.90
2050;DHT22;8478;49.208;8.806;2022-10-29T18:02:28;16.30;99.90
2050;DHT22;8478;49.208;8.806;2022-10-29T18:04:54;16.30;99.90
2050;DHT22;8478;49.208;8.806;2022-10-29T18:07:20;16.30;99.90
2050;DHT22;8478;49.208;8.806;2022-10-29T18:09:45;16.30;99.90
2050;DHT22;8478;49.208;8.806;2022-10-29T18:12:11;16.30;99.90
2050;DHT22;8478;49.208;8.806;2022-10-29T18:14:36;16.30;99.90
2050;DHT22;8478;49.208;8.806;2022-10-29T18:17:02;16.30;99.90
2050;DHT22;8478;49.208;8.806;2022-10-29T18:19:28;16.30;99.90
2050;DHT22;8478;49.208;8.806;2022-10-29T18:21:53;16.30;99.90
2050;DHT22;8478;49.208;8.806;2022-10-29T18:24:19;16.30;99.90
2050;DHT22;8478;49.208;8.806;2022-10-29T18:26:49;16.30;99.90
2050;DHT22;8478;49.208;8.806;2022-10-29T18:29:15;16.30;99.90
2050;DHT22;8478;49.208;8.806;2022-10-29T18:31:41;16.30;99.90
2050;DHT22;8478;49.208;8.806;2022-10-29T18:34:11;16.20;99.90
2050;DHT22;8478;49.208;8.806;2022-10-29T18:36:38;16.30;99.90
2050;DHT22;8478;49.208;8.806;2022-10-29T18:39:05;16.30;99.90
2050;DHT22;8478;49.208;8.806;2022-10-29T18:41:31;16.30;99.90
2050;DHT22;8478;49.208;8.806;2022-10-29T18:43:57;16.30;99.90
2050;DHT22;8478;49.208;8.806;2022-10-29T18:46:23;16.30;99.90
2050;DHT22;8478;49.208;8.806;2022-10-29T18:48:49;16.30;99.90
2050;DHT22;8478;49.208;8.806;2022-10-29T18:51:23;16.20;99.90
2050;DHT22;8478;49.208;8.806;2022-10-29T18:53:49;16.30;99.90
2050;DHT22;8478;49.208;8.806;2022-10-29T18:56:17;16.30;99.90
2050;DHT22;8478;49.208;8.806;2022-10-29T18:58:43;16.30;99.90